createdAt,value
2022-12-29T00:01:22.853Z,8.39
2022-12-29T00:03:25.493Z,8.47
2022-12-29T00:05:28.106Z,8.54
2022-12-29T00:07:30.644Z,8.66
2022-12-29T00:09:33.420Z,8.63
2022-12-29T00:11:36.186Z,8.77
2022-12-29T00:13:56.644Z,8.74
2022-12-29T00:16:00.734Z,8.77
2022-12-29T00:18:03.513Z,8.86
2022-12-29T00:20:20.706Z,8.79
2022-12-29T00:22:40.989Z,8.72
2022-12-29T00:25:01.523Z,8.63
2022-12-29T00:27:31.205Z,8.84
2022-12-29T00:29:51.440Z,8.82
2022-12-29T00:32:12.889Z,8.86
2022-12-29T00:34:33.348Z,8.85
2022-12-29T00:36:40.106Z,8.95
2022-12-29T00:39:04.216Z,8.97
2022-12-29T00:41:24.567Z,8.96
2022-12-29T00:43:44.584Z,8.96
2022-12-29T00:45:47.257Z,8.84
2022-12-29T00:47:51.230Z,8.82
2022-12-29T00:49:52.833Z,8.96
2022-12-29T00:51:56.356Z,8.96
2022-12-29T00:53:58.960Z,9.05
2022-12-29T00:56:01.707Z,8.93
2022-12-29T00:58:04.301Z,8.95
2022-12-29T01:00:08.118Z,8.96
2022-12-29T01:02:11.926Z,8.94
2022-12-29T01:04:16.211Z,8.89
2022-12-29T01:06:21.004Z,9.00
2022-12-29T01:08:23.628Z,9.03
2022-12-29T01:10:25.223Z,9.07
2022-12-29T01:14:58.114Z,9.07
2022-12-29T01:17:00.688Z,9.05
2022-12-29T01:19:03.298Z,9.07
2022-12-29T01:21:07.671Z,9.10
2022-12-29T01:23:10.209Z,9.00
2022-12-29T01:25:12.807Z,9.05
2022-12-29T01:27:15.363Z,9.07
2022-12-29T01:29:18.733Z,9.07
2022-12-29T01:31:22.760Z,8.98
2022-12-29T01:33:25.426Z,8.99
2022-12-29T01:35:28.437Z,9.13
2022-12-29T01:37:31.021Z,9.14
2022-12-29T01:39:33.604Z,8.98
2022-12-29T01:41:36.224Z,8.94
2022-12-29T01:43:44.085Z,8.95
2022-12-29T01:45:52.458Z,8.88
2022-12-29T01:48:01.200Z,8.86
2022-12-29T01:50:08.643Z,8.81
2022-12-29T01:52:11.189Z,8.83
2022-12-29T01:54:22.986Z,8.83
2022-12-29T01:56:25.679Z,8.75
2022-12-29T01:58:33.001Z,8.77
2022-12-29T02:00:35.725Z,8.76
2022-12-29T02:02:38.899Z,8.74
2022-12-29T02:04:45.917Z,8.73
2022-12-29T02:06:53.879Z,8.73
2022-12-29T02:08:58.590Z,8.70
2022-12-29T02:11:02.747Z,8.70
2022-12-29T02:13:05.515Z,8.71
2022-12-29T02:15:09.568Z,8.72
2022-12-29T02:17:22.451Z,8.72
2022-12-29T02:19:55.120Z,8.70
2022-12-29T02:22:06.366Z,8.77
2022-12-29T02:24:35.998Z,8.83
2022-12-29T02:26:55.087Z,8.95
2022-12-29T02:29:30.148Z,9.11
2022-12-29T02:31:44.094Z,9.18
2022-12-29T02:33:58.799Z,9.35
2022-12-29T02:36:09.594Z,9.42
2022-12-29T02:38:22.574Z,9.63
2022-12-29T02:40:30.149Z,9.61
2022-12-29T02:42:38.273Z,9.77
2022-12-29T02:44:53.509Z,9.77
2022-12-29T02:47:02.440Z,9.83
2022-12-29T02:49:12.473Z,9.84
2022-12-29T02:51:22.803Z,9.75
2022-12-29T02:53:40.978Z,9.71
2022-12-29T02:55:49.996Z,9.72
2022-12-29T02:58:15.466Z,9.98
2022-12-29T03:00:19.218Z,10.03
2022-12-29T03:02:37.719Z,9.95
2022-12-29T03:04:50.825Z,9.94
2022-12-29T03:07:03.784Z,9.92
2022-12-29T03:09:19.029Z,9.89
2022-12-29T03:11:49.625Z,10.19
2022-12-29T03:14:14.917Z,10.20
2022-12-29T03:16:25.598Z,10.19
2022-12-29T03:18:38.591Z,10.24
2022-12-29T03:20:47.394Z,10.27
2022-12-29T03:22:53.957Z,10.14
2022-12-29T03:24:59.858Z,10.20
2022-12-29T03:27:07.336Z,10.13
2022-12-29T03:29:11.334Z,10.07
2022-12-29T03:31:16.220Z,10.03
2022-12-29T03:33:24.826Z,10.18
2022-12-29T03:35:31.809Z,10.07
2022-12-29T03:37:40.978Z,10.21
2022-12-29T03:39:43.855Z,10.14
2022-12-29T03:41:47.721Z,10.03
2022-12-29T03:43:50.273Z,10.08
2022-12-29T03:45:52.914Z,9.95
2022-12-29T03:47:55.755Z,9.97
2022-12-29T03:49:58.335Z,9.98
2022-12-29T03:52:02.257Z,9.96
2022-12-29T03:54:05.028Z,9.88
2022-12-29T03:56:08.041Z,9.84
2022-12-29T03:58:10.569Z,9.87
2022-12-29T04:00:14.215Z,10.09
2022-12-29T04:02:16.997Z,9.91
2022-12-29T04:04:21.100Z,9.92
2022-12-29T04:06:24.540Z,9.91
2022-12-29T04:08:28.504Z,9.90
2022-12-29T04:10:31.064Z,10.14
2022-12-29T04:12:33.659Z,10.12
2022-12-29T04:14:36.842Z,10.00
2022-12-29T04:16:40.018Z,9.91
2022-12-29T04:18:42.685Z,9.88
2022-12-29T04:21:04.513Z,9.84
2022-12-29T04:23:08.125Z,9.80
2022-12-29T04:25:12.411Z,9.76
2022-12-29T04:27:14.965Z,9.71
2022-12-29T04:29:17.966Z,9.67
2022-12-29T04:31:20.613Z,9.63
2022-12-29T04:33:23.609Z,9.59
2022-12-29T04:35:26.189Z,9.53
2022-12-29T04:37:28.749Z,9.53
2022-12-29T04:39:31.319Z,9.49
2022-12-29T04:41:35.305Z,9.41
2022-12-29T04:43:37.939Z,9.45
2022-12-29T04:45:40.780Z,9.49
2022-12-29T04:47:43.371Z,9.54
2022-12-29T04:49:46.013Z,9.51
2022-12-29T04:51:48.631Z,9.50
2022-12-29T04:53:51.209Z,9.48
2022-12-29T04:55:54.640Z,9.44
2022-12-29T04:57:58.646Z,9.52
2022-12-29T05:00:01.255Z,9.48
2022-12-29T05:02:03.853Z,9.44
2022-12-29T05:04:06.610Z,9.41
2022-12-29T05:06:09.365Z,9.38
2022-12-29T05:08:12.015Z,9.45
2022-12-29T05:10:14.620Z,9.48
2022-12-29T05:12:17.268Z,9.49
2022-12-29T05:14:21.911Z,9.50
2022-12-29T05:16:24.539Z,9.52
2022-12-29T05:18:27.247Z,9.53
2022-12-29T05:20:29.789Z,9.66
2022-12-29T05:22:32.383Z,9.77
2022-12-29T05:24:35.644Z,9.67
2022-12-29T05:26:38.236Z,9.65
2022-12-29T05:28:40.810Z,9.72
2022-12-29T05:30:44.724Z,9.67
2022-12-29T05:32:47.335Z,9.75
2022-12-29T05:34:50.622Z,9.80
2022-12-29T05:36:53.452Z,9.94
2022-12-29T05:38:58.907Z,10.01
2022-12-29T05:41:01.738Z,9.96
2022-12-29T05:43:04.524Z,9.95
2022-12-29T05:45:09.048Z,9.98
2022-12-29T05:47:13.033Z,10.04
2022-12-29T05:49:15.602Z,10.01
2022-12-29T05:51:18.193Z,10.07
2022-12-29T05:53:21.185Z,10.31
2022-12-29T05:55:23.795Z,10.21
2022-12-29T05:57:26.400Z,10.13
2022-12-29T05:59:29.001Z,10.15
2022-12-29T06:01:31.622Z,10.30
2022-12-29T06:03:35.769Z,10.28
2022-12-29T06:05:38.635Z,10.12
2022-12-29T06:07:41.188Z,10.30
2022-12-29T06:09:43.837Z,10.27
2022-12-29T06:11:46.422Z,10.22
2022-12-29T06:13:48.986Z,10.35
2022-12-29T06:15:51.727Z,10.32
2022-12-29T06:17:54.329Z,10.32
2022-12-29T06:19:58.253Z,10.38
2022-12-29T06:22:00.849Z,10.34
2022-12-29T06:24:03.419Z,10.50
2022-12-29T06:26:06.232Z,10.40
2022-12-29T06:28:08.854Z,10.46
2022-12-29T06:30:12.863Z,10.54
2022-12-29T06:32:15.529Z,10.41
2022-12-29T06:34:18.094Z,10.40
2022-12-29T06:36:21.968Z,10.44
2022-12-29T06:38:24.518Z,10.58
2022-12-29T06:40:27.164Z,10.58
2022-12-29T06:42:29.755Z,10.54
2022-12-29T06:44:32.355Z,10.72
2022-12-29T06:46:34.937Z,10.68
2022-12-29T06:48:37.622Z,10.76
2022-12-29T06:50:40.322Z,10.86
2022-12-29T06:52:44.405Z,10.77
2022-12-29T06:54:47.040Z,10.84
2022-12-29T06:56:49.593Z,10.79
2022-12-29T06:58:52.139Z,10.76
2022-12-29T07:00:54.797Z,10.67
2022-12-29T07:02:59.019Z,10.72
2022-12-29T07:05:01.697Z,10.71
2022-12-29T07:07:04.323Z,10.66
2022-12-29T07:09:08.281Z,10.77
2022-12-29T07:11:10.966Z,10.85
2022-12-29T07:13:13.540Z,10.80
2022-12-29T07:15:16.258Z,10.81
2022-12-29T07:17:19.046Z,10.92
2022-12-29T07:19:22.000Z,10.94
2022-12-29T07:21:24.769Z,10.77
2022-12-29T07:23:27.322Z,10.79
2022-12-29T07:25:31.507Z,10.81
2022-12-29T07:27:34.089Z,10.94
2022-12-29T07:29:39.152Z,10.84
2022-12-29T07:31:41.756Z,10.89
2022-12-29T07:33:44.791Z,10.94
2022-12-29T07:35:47.342Z,10.78
2022-12-29T07:37:49.906Z,10.86
2022-12-29T07:39:52.521Z,10.90
2022-12-29T07:42:02.688Z,10.82
2022-12-29T07:44:07.301Z,10.88
2022-12-29T07:46:17.469Z,10.93
2022-12-29T07:48:34.565Z,10.97
2022-12-29T07:50:37.847Z,10.87
2022-12-29T07:52:40.399Z,10.97
2022-12-29T07:54:42.940Z,11.12
2022-12-29T07:56:45.646Z,11.08
2022-12-29T07:58:49.565Z,11.11
2022-12-29T08:00:55.392Z,11.13
2022-12-29T08:02:58.030Z,11.05
2022-12-29T08:05:00.614Z,11.04
2022-12-29T08:07:03.213Z,11.15
2022-12-29T08:09:13.598Z,11.05
2022-12-29T08:11:19.187Z,11.14
2022-12-29T08:13:21.763Z,11.15
2022-12-29T08:15:30.491Z,11.18
2022-12-29T08:17:35.078Z,11.31
2022-12-29T08:19:37.733Z,11.31
2022-12-29T08:21:40.470Z,11.38
2022-12-29T08:23:43.037Z,11.50
2022-12-29T08:25:45.628Z,11.47
2022-12-29T08:27:48.395Z,11.65
2022-12-29T08:29:51.142Z,11.62
2022-12-29T08:31:55.057Z,11.51
2022-12-29T08:33:57.610Z,11.61
2022-12-29T08:36:03.453Z,11.64
2022-12-29T08:38:06.119Z,11.68
2022-12-29T08:40:09.999Z,11.77
2022-12-29T08:42:12.752Z,11.81
2022-12-29T08:44:15.537Z,11.76
2022-12-29T08:46:18.740Z,11.65
2022-12-29T08:48:23.195Z,11.79
2022-12-29T08:50:25.779Z,11.78
2022-12-29T08:52:28.538Z,11.90
2022-12-29T08:54:31.140Z,11.83
2022-12-29T08:56:33.946Z,11.90
2022-12-29T08:58:36.748Z,11.94
2022-12-29T09:00:39.306Z,11.84
2022-12-29T09:02:41.945Z,12.01
2022-12-29T09:04:46.215Z,11.92
2022-12-29T09:06:48.893Z,11.81
2022-12-29T09:08:51.471Z,11.93
2022-12-29T09:10:54.069Z,11.81
2022-12-29T09:12:56.657Z,11.88
2022-12-29T09:14:59.360Z,11.90
2022-12-29T09:17:19.563Z,11.98
2022-12-29T09:19:22.153Z,12.10
2022-12-29T09:21:26.162Z,12.08
2022-12-29T09:23:29.561Z,12.03
2022-12-29T09:25:32.168Z,12.10
2022-12-29T09:27:34.713Z,12.01
2022-12-29T09:29:37.305Z,11.98
2022-12-29T09:31:39.932Z,12.15
2022-12-29T09:33:42.728Z,12.02
2022-12-29T09:35:46.019Z,12.11
2022-12-29T09:37:51.128Z,11.98
2022-12-29T09:39:54.709Z,11.98
2022-12-29T09:42:07.360Z,12.00
2022-12-29T09:44:19.277Z,11.99
2022-12-29T09:46:27.413Z,12.06
2022-12-29T09:48:34.702Z,12.01
2022-12-29T09:50:39.793Z,12.02
2022-12-29T09:52:50.126Z,12.04
2022-12-29T09:55:02.862Z,12.08
2022-12-29T09:57:17.743Z,11.92
2022-12-29T09:59:24.996Z,12.03
2022-12-29T10:01:34.398Z,11.94
2022-12-29T10:03:47.775Z,11.91
2022-12-29T10:05:58.346Z,11.98
2022-12-29T10:08:17.891Z,12.00
2022-12-29T10:10:36.365Z,12.07
2022-12-29T10:12:53.182Z,12.03
2022-12-29T10:15:04.829Z,12.00
2022-12-29T10:17:18.289Z,11.87
2022-12-29T10:19:35.148Z,12.01
2022-12-29T10:21:54.163Z,11.91
2022-12-29T10:23:58.166Z,11.87
2022-12-29T10:26:04.701Z,11.76
2022-12-29T10:28:15.671Z,11.88
2022-12-29T10:30:19.371Z,12.07
2022-12-29T10:32:29.295Z,11.89
2022-12-29T10:34:35.820Z,11.92
2022-12-29T10:36:41.910Z,11.98
2022-12-29T10:38:52.324Z,12.01
2022-12-29T10:41:02.458Z,11.96
2022-12-29T10:43:21.529Z,12.13
2022-12-29T10:45:27.508Z,11.97
2022-12-29T10:47:34.152Z,12.00
2022-12-29T10:49:42.087Z,12.05
2022-12-29T10:51:48.111Z,12.04
2022-12-29T10:53:54.986Z,12.12
2022-12-29T10:55:58.353Z,12.00
2022-12-29T10:58:05.904Z,11.91
2022-12-29T11:00:16.041Z,12.06
2022-12-29T11:02:44.727Z,12.11
2022-12-29T11:04:55.309Z,12.00
2022-12-29T11:06:58.752Z,12.05
2022-12-29T11:09:11.812Z,11.99
2022-12-29T11:11:25.076Z,11.99
2022-12-29T11:13:34.871Z,11.97
2022-12-29T11:15:43.860Z,11.93
2022-12-29T11:17:48.432Z,12.05
2022-12-29T11:19:50.950Z,12.03
2022-12-29T11:21:54.048Z,11.98
2022-12-29T11:24:01.718Z,12.13
2022-12-29T11:26:19.668Z,12.08
2022-12-29T11:28:22.260Z,12.06
2022-12-29T11:30:27.858Z,11.98
2022-12-29T11:32:31.819Z,11.90
2022-12-29T11:34:36.388Z,11.91
2022-12-29T11:36:40.842Z,11.88
2022-12-29T11:38:47.978Z,11.73
2022-12-29T11:40:51.567Z,11.85
2022-12-29T11:42:57.091Z,11.85
2022-12-29T11:45:10.837Z,11.95
2022-12-29T11:47:23.914Z,11.91
2022-12-29T11:49:28.657Z,11.93
2022-12-29T11:51:36.457Z,12.06
2022-12-29T11:53:44.355Z,12.08
2022-12-29T11:55:55.195Z,12.01
2022-12-29T11:58:03.178Z,11.92
2022-12-29T12:00:17.576Z,11.79
2022-12-29T12:02:37.208Z,11.87
2022-12-29T12:04:44.557Z,11.84
2022-12-29T12:06:51.265Z,11.94
2022-12-29T12:08:57.738Z,11.88
2022-12-29T12:11:08.422Z,11.87
2022-12-29T12:13:20.936Z,11.85
2022-12-29T12:15:27.808Z,11.77
2022-12-29T12:17:38.263Z,11.85
2022-12-29T12:19:48.403Z,11.85
2022-12-29T12:21:57.919Z,11.74
2022-12-29T12:24:19.157Z,11.72
2022-12-29T12:26:29.589Z,11.66
2022-12-29T12:28:39.531Z,11.83
2022-12-29T12:30:46.773Z,11.73
2022-12-29T12:32:57.568Z,11.70
2022-12-29T12:35:01.518Z,11.58
2022-12-29T12:37:28.658Z,11.58
2022-12-29T12:39:42.509Z,11.43
2022-12-29T12:41:55.873Z,11.54
2022-12-29T12:44:04.033Z,11.53
2022-12-29T12:46:20.673Z,11.45
2022-12-29T12:48:54.766Z,11.48
2022-12-29T12:51:09.372Z,11.40
2022-12-29T12:53:27.979Z,11.35
2022-12-29T12:55:52.528Z,11.40
2022-12-29T12:58:04.809Z,11.41
2022-12-29T13:00:12.754Z,11.43
2022-12-29T13:02:32.258Z,11.34
2022-12-29T13:04:52.155Z,11.35
2022-12-29T13:07:09.732Z,11.31
2022-12-29T13:09:26.012Z,11.31
2022-12-29T13:11:40.490Z,11.32
2022-12-29T13:14:07.856Z,11.29
2022-12-29T13:16:18.914Z,11.35
2022-12-29T13:18:28.418Z,11.48
2022-12-29T13:20:37.927Z,11.53
2022-12-29T13:22:50.142Z,11.50
2022-12-29T13:25:01.929Z,11.58
2022-12-29T13:27:11.196Z,11.51
2022-12-29T13:29:19.436Z,11.44
2022-12-29T13:31:32.037Z,11.46
2022-12-29T13:33:43.881Z,11.56
2022-12-29T13:35:53.796Z,11.38
2022-12-29T13:38:03.034Z,11.39
2022-12-29T13:40:15.055Z,11.54
2022-12-29T13:42:20.701Z,11.50
2022-12-29T13:44:31.863Z,11.50
2022-12-29T13:46:42.197Z,11.49
2022-12-29T13:48:50.913Z,11.52
2022-12-29T13:50:59.146Z,11.52
2022-12-29T13:53:10.622Z,11.48
2022-12-29T13:55:26.965Z,11.55
2022-12-29T13:57:41.615Z,11.53
2022-12-29T13:59:52.475Z,11.62
2022-12-29T14:02:01.051Z,11.67
2022-12-29T14:04:11.456Z,11.62
2022-12-29T14:06:21.384Z,11.81
2022-12-29T14:08:25.397Z,11.75
2022-12-29T14:10:31.018Z,11.84
2022-12-29T14:12:38.323Z,11.80
2022-12-29T14:14:41.150Z,11.77
2022-12-29T14:16:44.679Z,11.83
2022-12-29T14:18:47.468Z,11.81
2022-12-29T14:20:56.561Z,11.77
2022-12-29T14:23:01.461Z,11.89
2022-12-29T14:25:05.956Z,11.86
2022-12-29T14:27:46.749Z,11.90
2022-12-29T14:29:50.860Z,12.00
2022-12-29T14:31:54.338Z,11.85
2022-12-29T14:34:25.540Z,11.81
2022-12-29T14:36:36.395Z,11.74
2022-12-29T14:38:46.887Z,11.65
2022-12-29T14:40:51.588Z,11.73
2022-12-29T14:42:57.067Z,11.79
2022-12-29T14:45:04.628Z,11.71
2022-12-29T14:47:09.645Z,11.77
2022-12-29T14:49:17.962Z,11.81
2022-12-29T14:51:29.523Z,11.94
2022-12-29T14:53:46.901Z,11.76
2022-12-29T14:55:57.182Z,11.79
2022-12-29T14:58:04.866Z,11.79
2022-12-29T15:00:18.435Z,11.76
2022-12-29T15:02:24.104Z,11.86
2022-12-29T15:04:32.366Z,11.77
2022-12-29T15:06:40.545Z,11.83
2022-12-29T15:08:49.963Z,11.64
2022-12-29T15:11:01.459Z,11.58
2022-12-29T15:13:06.630Z,11.55
2022-12-29T15:15:22.157Z,11.55
2022-12-29T15:17:27.480Z,11.61
2022-12-29T15:19:30.578Z,11.79
2022-12-29T15:21:35.595Z,11.64
2022-12-29T15:23:39.166Z,11.67
2022-12-29T15:25:49.678Z,11.55
2022-12-29T15:27:55.725Z,11.51
2022-12-29T15:30:00.240Z,11.53
2022-12-29T15:32:17.833Z,11.45
2022-12-29T15:34:23.379Z,11.52
2022-12-29T15:36:28.488Z,11.49
2022-12-29T15:38:40.035Z,11.42
2022-12-29T15:40:46.226Z,11.48
2022-12-29T15:43:03.511Z,11.44
2022-12-29T15:45:11.158Z,11.43
2022-12-29T15:47:19.338Z,11.38
2022-12-29T15:49:30.394Z,11.31
2022-12-29T15:51:39.272Z,11.38
2022-12-29T15:53:41.914Z,11.34
2022-12-29T15:55:48.504Z,11.23
2022-12-29T15:57:51.176Z,11.18
2022-12-29T15:59:55.783Z,11.18
2022-12-29T16:02:00.158Z,11.12
2022-12-29T16:04:06.752Z,11.05
2022-12-29T16:06:11.348Z,11.15
2022-12-29T16:08:26.771Z,11.05
2022-12-29T16:10:34.627Z,11.13
2022-12-29T16:12:39.255Z,11.12
2022-12-29T16:14:45.439Z,11.25
2022-12-29T16:16:51.388Z,11.23
2022-12-29T16:18:58.045Z,11.18
2022-12-29T16:21:00.963Z,11.15
2022-12-29T16:23:03.591Z,11.14
2022-12-29T16:25:17.678Z,11.17
2022-12-29T16:27:24.939Z,11.11
2022-12-29T16:29:30.865Z,11.22
2022-12-29T16:31:37.272Z,11.09
2022-12-29T16:33:47.723Z,11.01
2022-12-29T16:35:50.337Z,11.03
2022-12-29T16:38:15.408Z,11.00
2022-12-29T16:40:26.957Z,10.99
2022-12-29T16:42:37.429Z,11.04
2022-12-29T16:44:40.321Z,10.99
2022-12-29T16:46:58.866Z,11.26
2022-12-29T16:49:02.894Z,11.13
2022-12-29T16:51:08.074Z,11.07
2022-12-29T16:53:22.098Z,11.07
2022-12-29T16:55:25.058Z,11.02
2022-12-29T16:57:31.413Z,11.13
2022-12-29T16:59:36.293Z,11.33
2022-12-29T17:01:40.498Z,11.13
2022-12-29T17:03:47.605Z,11.10
2022-12-29T17:05:57.379Z,11.12
2022-12-29T17:08:02.052Z,11.18
2022-12-29T17:10:05.268Z,11.15
2022-12-29T17:12:11.632Z,11.16
2022-12-29T17:14:24.921Z,11.14
2022-12-29T17:16:27.585Z,11.07
2022-12-29T17:18:30.331Z,11.21
2022-12-29T17:20:33.442Z,11.15
2022-12-29T17:22:37.341Z,11.06
2022-12-29T17:24:40.089Z,11.01
2022-12-29T17:26:42.980Z,11.04
2022-12-29T17:28:48.211Z,11.19
2022-12-29T17:30:51.725Z,11.24
2022-12-29T17:32:59.225Z,11.17
2022-12-29T17:35:01.974Z,11.01
2022-12-29T17:37:04.800Z,10.99
2022-12-29T17:39:09.699Z,11.04
2022-12-29T17:41:15.085Z,11.02
2022-12-29T17:43:18.318Z,10.92
2022-12-29T17:45:23.947Z,10.91
2022-12-29T17:47:26.501Z,10.92
2022-12-29T17:49:29.385Z,10.94
2022-12-29T17:51:31.998Z,10.90
2022-12-29T17:53:34.558Z,10.87
2022-12-29T17:55:38.922Z,10.85
2022-12-29T17:57:41.569Z,10.82
2022-12-29T17:59:44.397Z,10.79
2022-12-29T18:01:49.955Z,10.76
2022-12-29T18:03:52.754Z,10.76
2022-12-29T18:05:55.761Z,10.77
2022-12-29T18:07:59.931Z,10.76
2022-12-29T18:10:02.488Z,10.77
2022-12-29T18:12:08.175Z,10.78
2022-12-29T18:14:14.270Z,10.77
2022-12-29T18:16:17.028Z,10.75
2022-12-29T18:18:21.277Z,10.74
2022-12-29T18:20:24.065Z,10.74
2022-12-29T18:22:28.963Z,10.71
2022-12-29T18:24:31.586Z,10.69
2022-12-29T18:26:35.715Z,10.66
2022-12-29T18:28:40.315Z,10.66
2022-12-29T18:30:42.947Z,10.64
2022-12-29T18:32:45.648Z,10.61
2022-12-29T18:34:48.947Z,10.63
2022-12-29T18:36:53.095Z,10.59
2022-12-29T18:38:57.320Z,10.59
2022-12-29T18:40:59.903Z,10.60
2022-12-29T18:43:03.061Z,10.55
2022-12-29T18:45:19.206Z,10.54
2022-12-29T18:47:21.850Z,10.52
2022-12-29T18:49:25.495Z,10.55
2022-12-29T18:51:28.145Z,10.55
2022-12-29T18:53:30.828Z,10.54
2022-12-29T18:55:33.654Z,10.53
2022-12-29T18:57:36.251Z,10.55
2022-12-29T18:59:39.043Z,10.59
2022-12-29T19:01:43.414Z,10.70
2022-12-29T19:03:46.112Z,10.67
2022-12-29T19:05:48.915Z,10.88
2022-12-29T19:07:52.580Z,10.90
2022-12-29T19:09:56.023Z,10.92
2022-12-29T19:11:58.618Z,10.89
2022-12-29T19:14:01.337Z,10.94
2022-12-29T19:16:03.980Z,10.82
2022-12-29T19:18:43.093Z,10.91
2022-12-29T19:20:36.145Z,10.94
2022-12-29T19:22:38.789Z,10.85
2022-12-29T19:24:41.442Z,10.94
2022-12-29T19:26:44.020Z,10.89
2022-12-29T19:28:46.579Z,10.87
2022-12-29T19:30:52.649Z,10.91
2022-12-29T19:32:57.641Z,11.00
2022-12-29T19:35:01.558Z,11.14
2022-12-29T19:37:04.652Z,11.01
2022-12-29T19:39:07.322Z,10.93
2022-12-29T19:41:09.952Z,10.91
2022-12-29T19:43:12.957Z,10.95
2022-12-29T19:45:16.510Z,10.93
2022-12-29T19:47:20.966Z,10.92
2022-12-29T19:49:23.683Z,10.90
2022-12-29T19:51:28.078Z,10.90
2022-12-29T19:53:30.789Z,10.89
2022-12-29T19:55:33.939Z,10.89
2022-12-29T19:57:36.576Z,10.91
2022-12-29T19:59:39.162Z,10.86
2022-12-29T20:01:41.947Z,10.85
2022-12-29T20:03:44.624Z,10.79
2022-12-29T20:05:49.848Z,10.78
2022-12-29T20:07:53.750Z,10.74
2022-12-29T20:09:56.352Z,10.71
2022-12-29T20:11:58.944Z,10.69
2022-12-29T20:14:01.592Z,10.67
2022-12-29T20:16:07.564Z,10.58
2022-12-29T20:18:13.609Z,10.56
2022-12-29T20:20:17.061Z,10.56
2022-12-29T20:22:19.757Z,10.51
2022-12-29T20:24:23.812Z,10.48
2022-12-29T20:26:30.338Z,10.52
2022-12-29T20:28:33.244Z,10.42
2022-12-29T20:30:35.896Z,10.46
2022-12-29T20:32:38.729Z,10.39
2022-12-29T20:34:41.788Z,10.32
2022-12-29T20:36:46.578Z,10.24
2022-12-29T20:38:50.346Z,10.13
2022-12-29T20:40:54.369Z,10.07
2022-12-29T20:42:57.026Z,10.10
2022-12-29T20:45:00.353Z,9.94
2022-12-29T20:47:05.866Z,9.94
2022-12-29T20:49:08.745Z,9.94
2022-12-29T20:51:11.860Z,9.88
2022-12-29T20:53:14.441Z,9.85
2022-12-29T20:55:17.151Z,9.85
2022-12-29T20:57:21.102Z,9.78
2022-12-29T20:59:28.375Z,9.90
2022-12-29T21:01:31.527Z,9.76
2022-12-29T21:03:35.024Z,9.79
2022-12-29T21:05:38.857Z,9.69
2022-12-29T21:07:41.748Z,9.61
2022-12-29T21:09:44.333Z,9.65
2022-12-29T21:11:47.668Z,9.58
2022-12-29T21:13:51.651Z,9.64
2022-12-29T21:15:57.711Z,9.53
2022-12-29T21:18:00.310Z,9.51
2022-12-29T21:20:03.184Z,9.50
2022-12-29T21:22:05.773Z,9.53
2022-12-29T21:24:08.573Z,9.54
2022-12-29T21:26:12.562Z,9.46
2022-12-29T21:28:15.132Z,9.42
2022-12-29T21:30:19.233Z,9.40
2022-12-29T21:32:21.825Z,9.40
2022-12-29T21:34:24.413Z,9.38
2022-12-29T21:36:28.396Z,9.31
2022-12-29T21:38:31.893Z,9.25
2022-12-29T21:40:38.313Z,9.38
2022-12-29T21:42:40.891Z,9.27
2022-12-29T21:45:01.017Z,9.29
2022-12-29T21:47:04.964Z,9.40
2022-12-29T21:49:08.707Z,9.25
2022-12-29T21:51:32.254Z,9.30
2022-12-29T21:53:40.153Z,9.19
2022-12-29T21:55:42.709Z,9.30
2022-12-29T21:58:02.666Z,9.31
2022-12-29T22:00:23.403Z,9.17
2022-12-29T22:02:46.354Z,9.21
2022-12-29T22:05:07.185Z,9.30
2022-12-29T22:07:29.442Z,9.18
2022-12-29T22:09:49.704Z,9.17
2022-12-29T22:12:09.621Z,9.20
2022-12-29T22:14:12.170Z,9.13
2022-12-29T22:16:15.655Z,9.04
2022-12-29T22:18:19.860Z,9.08
2022-12-29T22:20:24.213Z,9.12
2022-12-29T22:22:26.788Z,9.06
2022-12-29T22:24:29.410Z,9.06
2022-12-29T22:26:32.041Z,9.05
2022-12-29T22:28:37.922Z,9.07
2022-12-29T22:30:40.774Z,8.99
2022-12-29T22:32:43.884Z,8.97
2022-12-29T22:34:49.694Z,8.97
2022-12-29T22:36:52.270Z,9.04
2022-12-29T22:38:55.006Z,9.02
2022-12-29T22:41:00.309Z,9.08
2022-12-29T22:43:07.989Z,9.05
2022-12-29T22:45:13.761Z,8.94
2022-12-29T22:47:16.349Z,8.95
2022-12-29T22:49:19.674Z,8.96
2022-12-29T22:51:23.593Z,9.01
2022-12-29T22:53:26.162Z,8.90
2022-12-29T22:55:28.729Z,9.15
2022-12-29T22:57:31.826Z,8.96
2022-12-29T22:59:34.749Z,8.87
2022-12-29T23:01:37.507Z,9.02
2022-12-29T23:03:40.322Z,8.99
2022-12-29T23:05:42.958Z,8.87
2022-12-29T23:07:46.871Z,8.89
2022-12-29T23:09:49.499Z,8.82
2022-12-29T23:11:53.300Z,8.79
2022-12-29T23:13:56.067Z,8.76
2022-12-29T23:15:58.987Z,8.87
2022-12-29T23:18:02.072Z,8.84
2022-12-29T23:20:06.039Z,8.77
2022-12-29T23:22:08.664Z,8.77
2022-12-29T23:24:14.709Z,8.83
2022-12-29T23:26:18.309Z,8.88
2022-12-29T23:28:20.901Z,8.80
2022-12-29T23:30:23.512Z,8.95
2022-12-29T23:32:26.084Z,8.90
2022-12-29T23:34:28.761Z,8.84
2022-12-29T23:36:31.960Z,8.84
2022-12-29T23:38:34.595Z,8.99
2022-12-29T23:40:38.502Z,8.82
2022-12-29T23:42:41.077Z,8.76
2022-12-29T23:44:43.801Z,8.73
2022-12-29T23:46:46.464Z,8.88
2022-12-29T23:48:49.527Z,8.77
2022-12-29T23:50:52.109Z,8.71
2022-12-29T23:52:54.779Z,8.72
2022-12-29T23:54:57.357Z,8.74
2022-12-29T23:57:01.289Z,8.73
2022-12-29T23:59:04.925Z,8.73
